Springfield Branson National Airport
KSGF : now visible

Airfield :











YOU CAN JOIN US ON...

 
LOGIN :

Register | Disclaimer

   EN    FR    IT 

 









Legend :    VFR   Marginal VFR   IFR   Intensive IFR   Very Intensive IFR
Visi :
Ceiling :
>= 8 km
>= 3000ft
5 to 8 km
1000 to 3000 ft
1500m to 5 km
500 to 1000 ft
800 to 1500m
200 to 500 ft
< 800m
< 200 ft
Symbols :   Thunderstorms  Fog  Heavy snow  Heavy precipitations  Wind > 20 kt






- Airport Elevation : 1268 ft
- IATA code : SGF


KSGF - Springfield Branson National

CURRENT METAR :
  • 161052Z 19008KT 10SM CLR 25/23 A2986 RMK AO2 SLP094 T02500228 $

EXPIRED METARs :
  • 160952Z 18009KT 10SM CLR 25/23 A2985 RMK AO2 SLP091 T02500228
  • 160852Z 20007KT 10SM CLR 26/23 A2985 RMK AO2 SLP089 T02560233 56013
  • 160752Z 19011KT 10SM CLR 26/23 A2986 RMK AO2 SLP094 T02610228
  • 160652Z 18010KT 10SM CLR 26/23 A2986 RMK AO2 SLP095 T02610228

TAF KSGF
Valid from the 16 at 06:00 until the 17 at 06:00 UTC


160536Z 1606/1706 19010KT P6SM SCT220
FM161000 22010G23KT P6SM BKN100 WS019/24040KT
FM161500 22010KT P6SM SCT110
FM162300 20008KT P6SM SCT110
PROB30 1700/1706 4SM TSRA BR OVC025CB
KZKC FIR / North America



MET'MAP, your aeronautical weather chart ! - Copyright ORBIFLY December 2007 - Disclaimer

ORBIFLY MET'MAP TEAM :

Programming & Development : Alexandra Zaïnal
Original concept : Baudouin d'Aumeries
Technical & hardware support : Manuel Goepfert
Assistance : Marc-Olivier Méhu




SOURCES & CREDITS :

   NOAA       Earth
Advisory